Flight Track Log - Related Links

Times and Time Zones

All times are in EDT time to prevent confusion due to time zone crossing. See the N983CA flight status page for this flight to view local times or setup timezone preferences in your user account.

Time Position Orientation Groundspeed Altitude Reporting Facility
EDT Latitude Longitude Course Direction KTS MPH feet Rate Location/Type
Fri 04:02:06 PM 37.6500 -122.3667 133° Southeast 164 189 1,500  Level Northern Cal TRACON
Fri 04:03:06 PM 37.7000 -122.3667 360° North 219 252 3,900 2,331 Climbing Northern Cal TRACON
Fri 04:04:07 PM 37.6833 -122.4333 252° West 247 284 6,200 2,430 Climbing Northern Cal TRACON
Fri 04:05:07 PM 37.6000 -122.4500 189° South 289 333 8,800 2,132 Climbing Northern Cal TRACON
Fri 04:05:23 PM 37.5981 -122.4394 103° East 273 314 8,900 1,870 Climbing Oakland Center
Fri 04:06:00 PM 37.2727 -122.1174 130° Southeast  Level FlightAware Approximate
Fri 04:06:24 PM 37.5133 -122.3647 145° Southeast 309 356 11,200  Level Oakland Center
Fri 04:07:00 PM 37.1824 -121.9988 133° Southeast  Level FlightAware Approximate
Fri 04:07:26 PM 37.4344 -122.2978 146° Southeast 338 389 13,000  Level Oakland Center
Fri 04:08:28 PM 37.3614 -122.2119 137° Southeast 367 422 14,800 1,756 Climbing Oakland Center
Fri 04:09:29 PM 37.3381 -122.0903 104° East 365 420 16,600 1,415 Climbing Oakland Center
Fri 04:10:31 PM 37.3147 -121.9661 103° East 367 422 17,700 1,171 Climbing Oakland Center
Fri 04:11:32 PM 37.2900 -121.8364 103° East 380 437 19,000 1,415 Climbing Oakland Center
Fri 04:12:34 PM 37.2611 -121.6803 103° East 394 453 20,600 1,366 Climbing Oakland Center
Fri 04:13:35 PM 37.2347 -121.5439 104° East 401 461 21,800 1,024 Climbing Oakland Center
Fri 04:14:37 PM 37.2072 -121.4067 104° East 405 466 22,700 927 Climbing Oakland Center
Fri 04:15:38 PM 37.1794 -121.2647 104° East 416 479 23,700 976 Climbing Oakland Center
Fri 04:16:40 PM 37.1517 -121.1211 104° East 423 487 24,700 878 Climbing Oakland Center
Fri 04:17:41 PM 37.1222 -120.9764 104° East 427 491 25,500 732 Climbing Oakland Center
Fri 04:18:43 PM 37.0928 -120.8267 104° East 439 505 26,200 726 Climbing Oakland Center
Fri 04:19:45 PM 37.0564 -120.6469 104° East 448 516 27,000 732 Climbing Oakland Center
Fri 04:20:46 PM 37.0264 -120.4964 104° East 453 521 27,700 488 Climbing Oakland Center
Fri 04:21:48 PM 36.9922 -120.3444 106° East 460 529 28,000 341 Climbing Oakland Center
Fri 04:22:49 PM 36.9625 -120.1858 103° East 469 540 28,400 634 Climbing Oakland Center
Fri 04:23:51 PM 36.9378 -120.0317 101° East 465 535 29,300 780 Climbing Oakland Center
Fri 04:24:52 PM 36.9133 -119.8750 101° East 460 529 30,000 732 Climbing Oakland Center
Fri 04:25:54 PM 36.8892 -119.7175 101° East 462 532 30,800 732 Climbing Oakland Center
Fri 04:26:55 PM 36.8578 -119.5300 102° East 459 528 31,500 683 Climbing Oakland Center
Fri 04:27:57 PM 36.8322 -119.3753 102° East 455 524 32,200 581 Climbing Oakland Center
Fri 04:28:59 PM 36.8075 -119.2208 101° East 455 524 32,700 390 Climbing Oakland Center
Fri 04:30:00 PM 36.7817 -119.0647 102° East 459 528 33,000 146 Climbing Oakland Center
Fri 04:31:02 PM 36.7547 -118.9044 102° East 472 543 33,000  Level Oakland Center
Fri 04:32:03 PM 36.7267 -118.7422 102° East 481 554 33,000  Level Oakland Center
Fri 04:33:05 PM 36.6981 -118.5783 102° East 486 559 33,000  Level Oakland Center
Fri 04:34:06 PM 36.6675 -118.4078 103° East 480 552 33,000  Level Oakland Center
Fri 04:35:08 PM 36.6411 -118.2469 102° East 475 547 33,000  Level Oakland Center
Fri 04:36:09 PM 36.6125 -118.0867 102° East 475 547 33,000  Level Oakland Center
Fri 04:37:11 PM 36.5783 -117.8947 102° East 475 547 33,000  Level Oakland Center
Fri 04:38:13 PM 36.5503 -117.7367 102° East 471 542 33,000  Level Oakland Center
Fri 04:39:14 PM 36.5208 -117.5764 103° East 475 547 33,000  Level Oakland Center
Fri 04:39:29 PM 36.5183 -117.5564 99° East 471 542 33,000  Level Los Angeles Center
Fri 04:40:32 PM 36.4886 -117.3944 103° East 476 548 33,000  Level Los Angeles Center
Fri 04:41:34 PM 36.4539 -117.2011 103° East 478 550 33,000  Level Los Angeles Center
Fri 04:42:36 PM 36.4239 -117.0389 103° East 479 551 33,000  Level Los Angeles Center
Fri 04:43:38 PM 36.3942 -116.8775 103° East 481 554 33,000  Level Los Angeles Center
Fri 04:44:39 PM 36.3694 -116.7478 103° East 481 554 33,000  Level Los Angeles Center
Fri 04:45:42 PM 36.3325 -116.5519 103° East 485 558 33,000  Level Los Angeles Center
Fri 04:46:44 PM 36.3008 -116.3894 104° East 486 559 33,000  Level Los Angeles Center
Fri 04:47:46 PM 36.2636 -116.1928 103° East 488 562 33,000  Level Los Angeles Center
Fri 04:48:49 PM 36.2506 -116.0186 95° East 485 558 33,000  Level Los Angeles Center
Fri 04:49:51 PM 36.2358 -115.8461 96° East 484 557 33,000  Level Los Angeles Center
Fri 04:50:53 PM 36.2228 -115.6825 96° East 485 558 33,000  Level Los Angeles Center
Fri 04:51:55 PM 36.2081 -115.5231 96° East 483 556 33,000  Level Los Angeles Center
Fri 04:52:57 PM 36.1958 -115.3611 95° East 483 556 33,000  Level Los Angeles Center
Fri 04:53:59 PM 36.1783 -115.1631 96° East 486 559 33,000  Level Los Angeles Center
Fri 04:55:01 PM 36.1644 -114.9981 96° East 487 560 33,000  Level Los Angeles Center
Fri 04:56:03 PM 36.1497 -114.8336 96° East 484 557 33,000  Level Los Angeles Center
Fri 04:57:05 PM 36.1347 -114.6697 96° East 482 555 33,000  Level Los Angeles Center
Fri 04:58:07 PM 36.1206 -114.5053 96° East 481 554 33,000  Level Los Angeles Center
Fri 04:59:09 PM 36.1022 -114.3094 97° East 480 552 33,000  Level Los Angeles Center
Fri 05:00:13 PM 36.0869 -114.1478 97° East 477 549 33,000  Level Los Angeles Center
Fri 05:01:15 PM 36.0719 -113.9856 96° East 476 548 33,000  Level Los Angeles Center
Fri 05:02:17 PM 36.0567 -113.8242 97° East 474 545 33,000  Level Los Angeles Center
Fri 05:03:19 PM 36.0408 -113.6631 97° East 474 545 33,000  Level Los Angeles Center
Fri 05:04:21 PM 36.0253 -113.5028 97° East 472 543 33,000  Level Los Angeles Center
Fri 05:05:23 PM 36.0061 -113.3103 97° East 471 542 33,000  Level Los Angeles Center
Fri 05:06:26 PM 35.9919 -113.1703 97° East 472 543 33,000  Level Los Angeles Center
Fri 05:07:28 PM 35.9728 -112.9786 97° East 472 543 33,000  Level Los Angeles Center
Fri 05:08:30 PM 35.9558 -112.8189 97° East 472 543 33,000  Level Los Angeles Center
Fri 05:09:32 PM 35.9394 -112.6569 97° East 473 544 33,000  Level Los Angeles Center
Fri 05:10:34 PM 35.9228 -112.4972 97° East 471 542 33,000  Level Los Angeles Center
Fri 05:11:36 PM 35.9047 -112.3369 98° East 472 543 33,000  Level Los Angeles Center
Fri 05:12:38 PM 35.8869 -112.1753 98° East 474 545 33,000  Level Los Angeles Center
Fri 05:13:40 PM 35.8656 -111.9825 98° East 475 547 33,000  Level Los Angeles Center
Fri 05:14:42 PM 35.8464 -111.8208 98° East 478 550 33,000  Level Los Angeles Center
Fri 05:15:44 PM 35.8289 -111.6600 98° East 476 548 33,000  Level Los Angeles Center
Fri 05:16:30 PM 35.8128 -111.5314 99° East 479 551 33,000  Level Albuquerque Center
Fri 05:17:32 PM 35.7944 -111.3797 98° East 478 550 33,000  Level Albuquerque Center
Fri 05:18:34 PM 35.7758 -111.1997 97° East 476 548 33,000  Level Albuquerque Center
Fri 05:19:36 PM 35.7544 -111.0453 100° East 476 548 33,000  Level Albuquerque Center
Fri 05:20:38 PM 35.7339 -110.8650 98° East 478 550 33,000  Level Albuquerque Center
Fri 05:21:40 PM 35.7147 -110.7108 99° East 477 549 33,000  Level Albuquerque Center
Fri 05:22:42 PM 35.6928 -110.5314 99° East 476 548 33,000  Level Albuquerque Center
Fri 05:23:44 PM 35.6739 -110.3786 99° East 474 545 33,000  Level Albuquerque Center
Fri 05:24:46 PM 35.6517 -110.1989 99° East 476 548 33,000  Level Albuquerque Center
Fri 05:25:48 PM 35.6322 -110.0456 99° East 475 547 33,000  Level Albuquerque Center
Fri 05:26:50 PM 35.6097 -109.8689 99° East 472 543 33,000  Level Albuquerque Center
Fri 05:27:54 PM 35.5897 -109.7167 99° East 473 544 33,000  Level Albuquerque Center
Fri 05:28:54 PM 35.5672 -109.5386 99° East 473 544 33,000 -197 Level Albuquerque Center
Fri 05:29:56 PM 35.5458 -109.3844 100° East 477 549 32,600 -726 Descending Albuquerque Center
Fri 05:30:58 PM 35.5206 -109.2006 100° East 489 563 31,500 -1,008 Descending Albuquerque Center
Fri 05:32:01 PM 35.4994 -109.0425 99° East 493 567 30,500 -1,008 Descending Albuquerque Center
Fri 05:33:03 PM 35.4767 -108.8586 99° East 491 565 29,400 -726 Descending Albuquerque Center
Fri 05:34:05 PM 35.4803 -108.7083 88° East 468 539 29,000 -194 Descending Albuquerque Center
Fri 05:35:07 PM 35.4836 -108.5317 89° East 466 536 29,000  Level Albuquerque Center
Fri 05:36:09 PM 35.4872 -108.3797 88° East 467 537 29,000 -581 Level Albuquerque Center
Fri 05:37:11 PM 35.4775 -108.1983 94° East 480 552 27,800 -1,403 Descending Albuquerque Center
Fri 05:38:13 PM 35.4681 -108.0469 94° East 472 543 26,100 -1,790 Descending Albuquerque Center
Fri 05:39:15 PM 35.4553 -107.8683 95° East 472 543 24,100 -1,694 Descending Albuquerque Center
Fri 05:40:17 PM 35.4464 -107.7206 94° East 460 529 22,600 -1,597 Descending Albuquerque Center
Fri 05:41:19 PM 35.4356 -107.5667 95° East 415 478 20,800 -1,774 Descending Albuquerque Center
Fri 05:42:12 PM 35.4278 -107.4428 94° East 400 460 19,200 -1,600 Descending Albuquerque Center
Fri 05:43:19 PM 35.3975 -107.3125 106° East 379 436 17,600 -1,574 Descending Albuquerque Center
Fri 05:44:14 PM 35.3478 -107.2211 124° Southeast 343 395 16,000 -2,083 Descending Albuquerque Center
Fri 05:45:20 PM 35.2903 -107.1081 122° Southeast 335 386 13,400 -2,000 Descending Albuquerque Center
Fri 05:46:29 PM 35.2267 -107.0303 135° Southeast 321 369 11,500 -1,748 Descending Albuquerque Center
Fri 05:47:27 PM 35.1622 -106.9561 137° Southeast 297 342 9,700 -1,462 Descending Albuquerque Center
Fri 05:48:28 PM 35.1064 -106.8925 137° Southeast 270 311 8,600 -797 Descending Albuquerque Center
Fri 05:49:35 PM 35.0508 -106.8231 134° Southeast 283 326 8,000 -520 Descending Albuquerque Center
Fri 05:50:35 PM 35.0450 -106.7475 95° East 196 226 7,500 -500 Descending Albuquerque Center

Login

Don't have an account? Register now (free) for customized features, flight alerts, and more!